Time;durP1;ratioP1;P1;durP2;ratioP2;P2;SDS_P1;SDS_P2;PMS_P1;PMS_P2;Temp;Humidity;BMP_temperature;BMP_pressure;BME280_temperature;BME280_humidity;BME280_pressure;Samples;Min_cycle;Max_cycle;Signal;HPM_P1;HPM_P2
2022/12/29 00:04:28;;;;;;;5.82;2.80;;;;;;;2.36;88.58;101554.56;10417373;28;20950;-80
2022/12/29 00:09:29;;;;;;;8.13;4.00;;;;;;;2.36;88.84;101556.34;10416761;28;20190;-80
2022/12/29 00:35:57;;;;;;;5.32;2.30;;;;;;;2.26;90.29;101579.59;10452998;28;20045;-80
2022/12/29 00:46:18;;;;;;;8.27;3.40;;;;;;;2.24;90.60;101573.59;10457964;28;20037;-80
2022/12/29 00:51:18;;;;;;;6.05;3.22;;;;;;;1.99;91.00;101543.47;10456222;28;20061;-80
2022/12/29 00:56:19;;;;;;;6.40;3.80;;;;;;;1.85;90.38;101517.16;10457784;28;20060;-80
2022/12/29 01:01:20;;;;;;;6.18;4.03;;;;;;;1.91;90.76;101550.06;10456728;28;20115;-79
2022/12/29 01:06:21;;;;;;;7.75;4.45;;;;;;;1.95;90.20;101559.47;10456949;28;20128;-80
2022/12/29 01:11:22;;;;;;;8.05;4.30;;;;;;;2.17;90.25;101593.22;10457164;28;20088;-79
2022/12/29 01:16:22;;;;;;;8.38;4.45;;;;;;;2.03;89.92;101578.22;10456594;28;20067;-79
2022/12/29 01:21:24;;;;;;;9.75;4.15;;;;;;;2.10;90.22;101608.44;10422597;28;20041;-79
2022/12/29 01:26:24;;;;;;;10.35;4.38;;;;;;;1.90;90.18;101583.28;10413194;28;20110;-79
2022/12/29 01:31:25;;;;;;;7.55;4.13;;;;;;;1.92;90.74;101618.13;10415417;28;20191;-79
2022/12/29 01:36:26;;;;;;;11.20;4.60;;;;;;;1.80;90.79;101606.50;10419622;28;20036;-78
2022/12/29 01:41:27;;;;;;;12.27;5.00;;;;;;;0.63;90.67;101431.06;10428413;28;20060;-79
2022/12/29 01:46:31;;;;;;;10.43;4.82;;;;;;;1.70;91.03;101634.09;10454739;28;20504;-79
2022/12/29 01:51:36;;;;;;;9.38;5.03;;;;;;;1.51;91.33;101618.50;10450569;28;20433;-79
2022/12/29 01:56:37;;;;;;;6.97;4.68;;;;;;;1.50;91.53;101627.28;10414750;28;20041;-79
2022/12/29 02:01:38;;;;;;;10.68;5.35;;;;;;;1.34;91.99;101616.72;10413699;28;20045;-80
2022/12/29 02:07:02;;;;;;;8.25;5.53;;;;;;;1.39;92.16;101633.97;10421406;28;20033;-80
2022/12/29 02:12:03;;;;;;;10.02;6.45;;;;;;;0.81;92.67;101557.47;10452659;28;20040;-80
2022/12/29 02:17:22;;;;;;;10.43;6.80;;;;;;;0.87;92.80;101572.00;10453958;28;20078;-80
2022/12/29 02:22:23;;;;;;;11.98;6.65;;;;;;;1.29;92.80;101649.31;10454446;28;20037;-79
2022/12/29 02:27:43;;;;;;;9.68;6.88;;;;;;;1.23;92.86;101642.59;10454060;28;20040;-80
2022/12/29 02:32:59;;;;;;;10.95;6.05;;;;;;;1.33;92.84;101656.94;10454738;28;20045;-80
2022/12/29 02:38:17;;;;;;;10.65;6.45;;;;;;;0.89;92.37;101584.06;10446335;28;20048;-79
2022/12/29 02:43:54;;;;;;;9.93;5.90;;;;;;;1.51;92.95;101665.63;10416963;28;20037;-81
2022/12/29 02:49:09;;;;;;;11.52;5.85;;;;;;;1.51;92.02;101673.47;10443019;28;20063;-83
2022/12/29 02:59:29;;;;;;;12.13;6.05;;;;;;;1.46;92.02;101659.75;10461777;28;20112;-82
2022/12/29 03:04:48;;;;;;;10.85;6.60;;;;;;;1.46;92.11;101666.78;10458776;28;20047;-86
2022/12/29 03:10:08;;;;;;;12.77;6.22;;;;;;;1.01;92.05;101603.53;10442709;28;20394;-80
2022/12/29 03:20:58;;;;;;;12.77;6.00;;;;;;;1.11;92.28;101643.22;10459859;28;20045;-83
2022/12/29 03:26:04;;;;;;;12.40;6.38;;;;;;;1.23;92.04;101696.75;10458912;28;20073;-82
2022/12/29 03:31:07;;;;;;;13.55;6.35;;;;;;;0.64;92.91;101614.97;10459912;28;20036;-81
2022/12/29 03:36:16;;;;;;;10.60;6.03;;;;;;;0.72;92.58;101644.22;10457568;28;20037;-83
2022/12/29 03:41:25;;;;;;;15.32;5.78;;;;;;;0.80;92.78;101670.00;10439734;28;20290;-77
2022/12/29 03:46:26;;;;;;;11.60;5.78;;;;;;;1.02;93.30;101709.09;10460297;28;20049;-81
2022/12/29 03:51:27;;;;;;;12.48;6.03;;;;;;;1.20;93.13;101746.59;10411850;28;20501;-80
2022/12/29 03:56:28;;;;;;;9.80;5.53;;;;;;;1.21;93.06;101751.75;10417685;28;20046;-76
2022/12/29 04:01:29;;;;;;;10.40;5.80;;;;;;;0.74;92.81;101665.91;10418500;28;20462;-74
2022/12/29 04:06:29;;;;;;;11.00;5.68;;;;;;;1.14;93.22;101748.59;10417424;28;20091;-85
2022/12/29 04:11:30;;;;;;;9.73;5.40;;;;;;;1.33;92.98;101764.25;10418037;28;20049;-74
2022/12/29 04:16:31;;;;;;;8.50;4.78;;;;;;;0.87;92.89;101685.34;10418136;28;20037;-74
2022/12/29 04:21:32;;;;;;;9.52;4.35;;;;;;;0.98;92.86;101702.28;10417746;28;20048;-88
2022/12/29 04:26:33;;;;;;;8.95;3.78;;;;;;;1.45;92.71;101775.06;10416708;28;20041;-79
2022/12/29 04:31:34;;;;;;;7.40;3.80;;;;;;;1.52;92.53;101774.69;10417125;28;20041;-78
2022/12/29 04:36:35;;;;;;;7.20;3.53;;;;;;;1.59;92.20;101767.41;10416721;28;20042;-78
2022/12/29 04:41:35;;;;;;;5.30;3.35;;;;;;;1.12;91.58;101707.72;10416191;28;20042;-80
2022/12/29 04:46:36;;;;;;;9.10;3.42;;;;;;;0.98;91.34;101703.13;10412546;28;20074;-80
2022/12/29 04:51:37;;;;;;;7.07;3.55;;;;;;;1.05;90.75;101714.19;10425042;28;20049;-72
2022/12/29 04:56:38;;;;;;;7.72;3.95;;;;;;;1.15;90.88;101744.22;10457690;28;20144;-81
2022/12/29 05:01:39;;;;;;;8.07;3.40;;;;;;;1.03;90.67;101722.09;10457022;28;20037;-80
2022/12/29 05:06:39;;;;;;;5.88;3.83;;;;;;;1.33;90.35;101793.06;10456355;28;20037;-80
2022/12/29 05:11:40;;;;;;;9.70;3.47;;;;;;;1.30;90.54;101797.59;10454652;28;20135;-81
2022/12/29 05:16:41;;;;;;;5.07;2.72;;;;;;;1.31;90.03;101805.38;10456488;28;20041;-80
2022/12/29 05:21:42;;;;;;;6.38;2.65;;;;;;;1.37;90.09;101810.31;10455881;28;20037;-80
2022/12/29 05:26:43;;;;;;;5.15;2.55;;;;;;;1.54;89.33;101812.13;10456331;28;20124;-79
2022/12/29 05:31:44;;;;;;;3.75;2.40;;;;;;;1.63;88.48;101797.75;10456136;28;20478;-80
2022/12/29 05:36:44;;;;;;;5.72;2.55;;;;;;;1.80;88.21;101825.75;10455935;28;20045;-79
2022/12/29 05:41:45;;;;;;;11.43;2.60;;;;;;;1.34;87.66;101758.09;10456425;28;20041;-79
2022/12/29 05:46:46;;;;;;;4.20;2.35;;;;;;;1.56;87.12;101757.91;10455624;28;20476;-79
2022/12/29 05:51:47;;;;;;;7.88;2.30;;;;;;;1.92;86.18;101803.34;10455485;28;20579;-79
2022/12/29 05:56:49;;;;;;;5.32;2.60;;;;;;;2.23;86.44;101858.53;10453350;28;20460;-79
2022/12/29 06:01:50;;;;;;;5.88;2.58;;;;;;;2.06;86.47;101808.72;10445658;28;20044;-79
2022/12/29 06:06:51;;;;;;;6.03;2.05;;;;;;;2.43;86.21;101861.94;10412052;28;20037;-80
2022/12/29 06:11:51;;;;;;;5.68;2.65;;;;;;;2.25;84.74;101843.59;10412334;28;20038;-80
2022/12/29 06:16:52;;;;;;;5.63;2.80;;;;;;;1.99;84.79;101802.94;10413320;28;20044;-80
2022/12/29 06:21:53;;;;;;;4.68;1.92;;;;;;;1.57;84.41;101740.44;10412314;28;20456;-80
2022/12/29 06:26:54;;;;;;;6.18;2.40;;;;;;;2.08;84.57;101850.59;10411772;28;20045;-80
2022/12/29 06:31:57;;;;;;;6.70;2.00;;;;;;;1.99;84.27;101855.38;10411235;28;20049;-80
2022/12/29 06:36:58;;;;;;;6.43;2.38;;;;;;;2.08;84.42;101869.78;10372427;28;20525;-80
2022/12/29 06:41:59;;;;;;;4.80;2.00;;;;;;;1.74;84.29;101799.88;10397441;28;20128;-80
2022/12/29 06:47:00;;;;;;;3.88;2.15;;;;;;;2.17;83.32;101814.28;10396423;28;20049;-80
2022/12/29 06:52:03;;;;;;;4.47;2.30;;;;;;;2.93;81.13;101853.19;10413094;28;20064;-79
2022/12/29 06:57:04;;;;;;;5.17;2.00;;;;;;;3.26;80.82;101812.91;10412654;28;20036;-79
2022/12/29 07:02:05;;;;;;;14.25;2.30;;;;;;;3.76;78.50;101890.69;10412501;28;20284;-80
2022/12/29 07:07:06;;;;;;;5.97;1.90;;;;;;;3.73;76.08;101861.97;10413448;28;20044;-80
2022/12/29 07:12:07;;;;;;;7.82;2.25;;;;;;;4.26;76.92;101915.91;10412276;28;20041;-80
2022/12/29 07:17:08;;;;;;;4.68;2.10;;;;;;;4.13;76.34;101902.63;10411645;28;20489;-80
2022/12/29 07:22:09;;;;;;;7.45;2.70;;;;;;;4.06;75.58;101885.47;10412006;28;20051;-80
2022/12/29 07:27:10;;;;;;;5.38;2.00;;;;;;;4.29;76.57;101934.13;10412552;28;20045;-80
2022/12/29 07:32:11;;;;;;;5.22;2.42;;;;;;;4.02;76.86;101879.56;10411807;28;20046;-81
2022/12/29 07:37:11;;;;;;;4.32;1.90;;;;;;;3.81;76.93;101860.59;10412941;28;20041;-81
2022/12/29 07:42:12;;;;;;;5.95;2.83;;;;;;;4.10;77.52;101916.78;10419751;28;20037;-82
2022/12/29 07:47:13;;;;;;;6.20;3.03;;;;;;;3.80;77.36;101860.66;10420134;28;20077;-82
2022/12/29 07:52:14;;;;;;;8.35;3.60;;;;;;;4.56;76.53;101918.53;10419707;28;20168;-81
2022/12/29 07:57:15;;;;;;;5.25;2.55;;;;;;;4.95;75.25;101899.50;10419322;28;20076;-80
2022/12/29 08:02:16;;;;;;;5.50;2.63;;;;;;;4.38;74.82;101806.47;10418556;28;20084;-80
2022/12/29 08:07:17;;;;;;;5.32;2.88;;;;;;;5.12;74.81;101906.38;10419577;28;20538;-81
2022/12/29 08:12:18;;;;;;;5.00;2.83;;;;;;;4.76;74.32;101859.44;10418737;28;20037;-78
2022/12/29 08:17:18;;;;;;;6.72;3.13;;;;;;;4.80;73.96;101895.16;10418621;28;20041;-78
2022/12/29 08:22:19;;;;;;;8.60;3.67;;;;;;;4.91;73.74;101873.47;10417676;28;20556;-78
2022/12/29 08:27:20;;;;;;;9.48;3.60;;;;;;;4.84;73.99;101836.09;10417737;28;20067;-79
2022/12/29 08:32:21;;;;;;;7.00;3.78;;;;;;;4.69;73.40;101781.75;10418615;28;20044;-81
2022/12/29 08:37:22;;;;;;;6.20;3.40;;;;;;;5.10;73.31;101808.16;10417036;28;20052;-80
2022/12/29 08:42:23;;;;;;;6.63;3.00;;;;;;;5.75;72.66;101860.22;10416929;28;20524;-81
2022/12/29 08:47:24;;;;;;;7.13;3.85;;;;;;;5.97;72.59;101874.69;10416876;28;20124;-83
2022/12/29 08:52:25;;;;;;;6.68;3.45;;;;;;;5.13;72.83;101791.31;10415724;28;20057;-81
2022/12/29 08:57:26;;;;;;;6.85;3.70;;;;;;;5.54;73.27;101874.78;10416113;28;20410;-80
2022/12/29 09:02:26;;;;;;;11.65;3.60;;;;;;;5.40;73.25;101870.38;10415545;28;20410;-80
2022/12/29 09:07:27;;;;;;;8.52;3.42;;;;;;;5.23;72.29;101797.66;10415202;28;20493;-80
2022/12/29 09:12:28;;;;;;;10.13;4.18;;;;;;;5.61;71.28;101771.47;10415660;28;20049;-78
2022/12/29 09:17:41;;;;;;;10.73;4.07;;;;;;;6.30;70.85;101806.47;10415490;28;20048;-81
2022/12/29 09:22:43;;;;;;;8.98;3.35;;;;;;;6.10;68.61;101783.22;10415311;28;20054;-80
2022/12/29 09:27:43;;;;;;;9.45;3.55;;;;;;;5.91;70.34;101852.16;10414315;28;20126;-80
2022/12/29 09:32:44;;;;;;;6.97;3.58;;;;;;;5.27;70.47;101786.00;10415053;28;20123;-80
2022/12/29 09:37:45;;;;;;;8.88;3.80;;;;;;;5.58;70.61;101844.66;10414272;28;20065;-80
2022/12/29 09:43:05;;;;;;;10.25;4.07;;;;;;;5.39;70.50;101814.22;10414094;28;20037;-81
2022/12/29 09:48:15;;;;;;;6.15;3.60;;;;;;;5.14;70.80;101798.25;10414709;28;20099;-81
2022/12/29 09:53:46;;;;;;;7.35;3.90;;;;;;;5.03;70.07;101818.22;10414014;28;20065;-81
2022/12/29 09:58:57;;;;;;;7.72;3.90;;;;;;;4.98;70.07;101843.16;10413804;28;20045;-81
2022/12/29 10:04:02;;;;;;;8.10;3.60;;;;;;;4.32;71.28;101755.91;10413098;28;20582;-81
2022/12/29 10:09:26;;;;;;;5.38;2.90;;;;;;;4.90;71.09;101838.34;10413836;28;20428;-81
2022/12/29 10:14:58;;;;;;;7.37;3.43;;;;;;;4.89;71.31;101834.03;10413653;28;20409;-81
2022/12/29 10:20:01;;;;;;;6.28;3.28;;;;;;;4.87;71.53;101832.44;10413526;28;20397;-82
2022/12/29 10:25:12;;;;;;;7.30;3.70;;;;;;;4.57;71.04;101784.19;10413307;28;20049;-81
2022/12/29 10:30:14;;;;;;;5.38;3.63;;;;;;;4.78;70.90;101828.56;10413704;28;20042;-81
2022/12/29 10:35:30;;;;;;;7.20;3.70;;;;;;;4.53;70.57;101780.06;10413238;28;20033;-82
2022/12/29 10:40:52;;;;;;;8.23;3.22;;;;;;;4.94;70.57;101833.75;10412502;28;20052;-81
2022/12/29 10:45:57;;;;;;;6.28;3.05;;;;;;;4.71;70.53;101783.34;10412502;28;20042;-81
2022/12/29 10:51:01;;;;;;;6.30;3.58;;;;;;;4.64;71.52;101781.22;10413308;28;20065;-81
2022/12/29 10:56:10;;;;;;;9.05;4.28;;;;;;;5.03;71.23;101838.47;10411482;28;20033;-82
2022/12/29 11:01:12;;;;;;;8.18;4.55;;;;;;;4.73;70.36;101788.53;10412319;28;20042;-79
2022/12/29 11:06:17;;;;;;;5.70;3.10;;;;;;;5.12;70.55;101835.25;10412414;28;20040;-82
2022/12/29 11:11:27;;;;;;;5.35;2.95;;;;;;;5.04;69.79;101826.97;10413611;28;20076;-81
2022/12/29 11:16:34;;;;;;;9.18;3.92;;;;;;;4.65;70.71;101786.38;10420378;28;20052;-81
2022/12/29 11:21:40;;;;;;;9.70;4.65;;;;;;;4.83;71.48;101836.22;10420283;28;20034;-81
2022/12/29 11:26:44;;;;;;;6.97;4.05;;;;;;;4.91;71.31;101855.03;10420142;28;20087;-81
2022/12/29 11:31:45;;;;;;;;;;;;;;;5.11;71.92;101845.88;10419434;28;20068;-82
2022/12/29 11:36:47;;;;;;;8.05;4.25;;;;;;;5.01;71.92;101849.06;10419741;28;19923;-81
2022/12/29 11:41:52;;;;;;;7.25;4.60;;;;;;;4.58;71.99;101783.28;10419210;28;20103;-81
2022/12/29 11:46:55;;;;;;;11.55;6.63;;;;;;;4.64;72.25;101789.97;10418991;28;20076;-81
2022/12/29 11:51:56;;;;;;;7.85;5.13;;;;;;;4.54;72.68;101781.75;10419194;28;20053;-81
2022/12/29 11:56:58;;;;;;;11.10;5.68;;;;;;;4.86;73.39;101847.38;10418802;28;20480;-80
2022/12/29 12:02:11;;;;;;;6.72;4.47;;;;;;;4.89;72.78;101843.72;10418874;28;20037;-82
2022/12/29 12:07:17;;;;;;;10.23;5.43;;;;;;;4.83;73.36;101850.22;10418170;28;20451;-82
2022/12/29 12:12:44;;;;;;;9.52;5.20;;;;;;;4.83;72.23;101847.56;10411475;28;20780;-79
2022/12/29 12:18:10;;;;;;;8.70;4.18;;;;;;;4.67;72.28;101847.69;10409626;28;20036;-80
2022/12/29 12:23:25;;;;;;;10.45;3.80;;;;;;;4.50;72.39;101829.41;10432835;28;20049;-80
2022/12/29 12:28:40;;;;;;;12.75;6.90;;;;;;;4.72;71.86;101856.13;10445735;28;20045;-79
2022/12/29 12:33:44;;;;;;;9.48;5.28;;;;;;;4.79;73.15;101851.34;10454245;28;20045;-80
2022/12/29 12:38:45;;;;;;;8.18;3.90;;;;;;;4.75;73.13;101847.19;10449698;28;20051;-79
2022/12/29 12:44:06;;;;;;;15.35;3.95;;;;;;;4.69;71.74;101860.72;10458741;28;20627;-79
2022/12/29 12:49:31;;;;;;;7.35;4.07;;;;;;;4.62;72.58;101862.03;10445802;28;20057;-82
2022/12/29 12:54:54;;;;;;;11.13;5.10;;;;;;;4.50;72.88;101872.38;10440066;28;20053;-82
2022/12/29 13:00:12;;;;;;;6.80;3.50;;;;;;;4.33;73.99;101859.34;10409159;28;20124;-86
2022/12/29 13:05:31;;;;;;;13.05;4.32;;;;;;;4.39;74.79;101871.31;10427402;28;20045;-81
2022/12/29 13:10:51;;;;;;;6.15;3.92;;;;;;;4.09;74.08;101838.81;10429623;28;20045;-85
2022/12/29 13:16:10;;;;;;;13.68;4.10;;;;;;;4.30;74.56;101872.69;10439221;28;20072;-85
2022/12/29 13:21:27;;;;;;;17.00;5.32;;;;;;;3.68;75.38;101822.81;10437188;28;20045;-79
2022/12/29 13:26:39;;;;;;;9.25;4.00;;;;;;;3.43;76.31;101808.41;10415186;28;20068;-86
2022/12/29 13:32:02;;;;;;;15.80;4.03;;;;;;;3.53;76.07;101858.69;10415993;28;20095;-86
2022/12/29 13:37:10;;;;;;;11.93;5.90;;;;;;;3.42;75.19;101888.16;10429692;28;20496;-86
2022/12/29 13:42:12;;;;;;;38.80;17.35;;;;;;;3.30;76.13;101898.50;10457282;28;20087;-86
2022/12/29 13:47:28;;;;;;;28.67;14.02;;;;;;;3.16;74.88;101897.44;10456676;28;20408;-83
2022/12/29 13:52:39;;;;;;;17.85;7.80;;;;;;;2.97;75.82;101902.00;10456889;28;20065;-85
2022/12/29 13:57:54;;;;;;;19.13;8.50;;;;;;;2.78;75.85;101894.22;10454701;28;20440;-86
2022/12/29 14:03:24;;;;;;;31.55;19.90;;;;;;;2.73;76.58;101910.22;10440245;28;20431;-86
2022/12/29 14:08:25;;;;;;;20.45;10.90;;;;;;;2.36;76.24;101881.50;10455636;28;20083;-85
2022/12/29 14:13:26;;;;;;;24.95;10.25;;;;;;;2.44;77.16;101918.72;10420862;28;20056;-86
2022/12/29 14:18:31;;;;;;;19.58;9.15;;;;;;;2.32;78.35;101924.56;10415132;28;20136;-86
2022/12/29 14:23:35;;;;;;;20.85;11.73;;;;;;;2.13;79.22;101933.34;10414570;28;20037;-86
2022/12/29 14:28:38;;;;;;;20.95;11.82;;;;;;;1.65;79.21;101892.84;10434882;28;20106;-87
2022/12/29 14:33:40;;;;;;;17.35;12.07;;;;;;;1.52;79.74;101917.88;10455311;28;20044;-86
2022/12/29 14:38:45;;;;;;;18.70;10.88;;;;;;;1.43;80.23;101945.34;10454099;28;20076;-87
2022/12/29 14:44:07;;;;;;;22.65;8.18;;;;;;;0.89;80.91;101877.09;10455969;28;20079;-87
2022/12/29 14:49:17;;;;;;;26.58;7.68;;;;;;;0.96;81.43;101922.16;10461331;28;20060;-87
2022/12/29 14:54:33;;;;;;;10.52;6.65;;;;;;;1.16;82.04;101960.53;10463345;28;20509;-87
2022/12/29 14:59:35;;;;;;;14.07;5.70;;;;;;;0.86;81.64;101933.94;10462314;28;20051;-78
2022/12/29 15:04:36;;;;;;;23.85;7.72;;;;;;;0.81;81.44;101942.00;10423669;28;20478;-79
2022/12/29 15:09:54;;;;;;;29.88;8.05;;;;;;;0.84;83.55;101973.25;10418670;28;20134;-78
2022/12/29 15:14:57;;;;;;;13.93;5.75;;;;;;;0.69;82.88;101976.53;10420016;28;20045;-78
2022/12/29 15:20:00;;;;;;;8.63;4.60;;;;;;;-0.09;82.88;101865.59;10419894;28;20410;-80
2022/12/29 15:25:02;;;;;;;12.38;4.97;;;;;;;0.05;83.19;101913.81;10418362;28;20087;-79
2022/12/29 15:30:09;;;;;;;36.53;6.22;;;;;;;0.45;84.18;101986.25;10418550;28;20087;-77
2022/12/29 15:35:33;;;;;;;20.90;5.85;;;;;;;0.42;85.33;101981.13;10413549;28;20054;-79
2022/12/29 15:40:34;;;;;;;15.75;4.97;;;;;;;0.27;84.35;101969.53;10448401;28;20049;-78
2022/12/29 15:45:35;;;;;;;14.55;4.80;;;;;;;-0.36;84.28;101872.75;10435805;28;20048;-78
2022/12/29 15:50:40;;;;;;;13.50;3.70;;;;;;;-0.14;83.92;101945.88;10445761;28;20052;-85
2022/12/29 15:55:42;;;;;;;8.85;3.90;;;;;;;-0.16;84.47;101989.50;10447396;28;20041;-84
2022/12/29 16:00:48;;;;;;;28.17;9.45;;;;;;;-0.31;86.13;101967.41;10440889;28;20049;-83
2022/12/29 16:06:06;;;;;;;22.00;8.75;;;;;;;-0.15;86.14;101996.44;10435600;28;20056;-82
2022/12/29 16:11:42;;;;;;;16.33;8.13;;;;;;;-0.29;87.05;101964.75;10447588;28;20045;-83
2022/12/29 16:16:46;;;;;;;15.93;8.77;;;;;;;-0.34;85.34;101979.75;10405233;28;20068;-85
2022/12/29 16:21:47;;;;;;;18.17;8.97;;;;;;;-0.37;86.66;101979.88;10424728;28;20098;-76
2022/12/29 16:26:50;;;;;;;17.08;8.48;;;;;;;-0.70;86.39;101941.91;10427828;28;20048;-82
2022/12/29 16:32:03;;;;;;;16.60;7.60;;;;;;;-1.07;86.84;101885.00;10446587;28;20068;-79
2022/12/29 16:37:24;;;;;;;17.90;7.30;;;;;;;-0.60;87.69;101978.97;10455967;28;20041;-75
2022/12/29 16:42:40;;;;;;;15.45;8.55;;;;;;;-0.65;88.03;101967.00;10444821;28;20044;-82
2022/12/29 16:47:41;;;;;;;19.33;8.32;;;;;;;-1.32;86.68;101866.75;10445647;28;20622;-82
2022/12/29 16:52:42;;;;;;;16.40;8.85;;;;;;;-1.39;87.07;101873.09;10438077;28;20198;-81
2022/12/29 16:57:47;;;;;;;21.70;8.60;;;;;;;-0.79;87.87;101970.09;10414229;28;20045;-81
2022/12/29 17:02:50;;;;;;;9.93;6.13;;;;;;;-0.79;87.99;101977.91;10391889;28;20088;-82
2022/12/29 17:07:52;;;;;;;18.90;7.10;;;;;;;-0.79;87.74;101972.69;10414274;28;20045;-81
2022/12/29 17:12:53;;;;;;;18.25;7.60;;;;;;;-0.81;87.69;101970.13;10414479;28;20045;-81
2022/12/29 17:17:55;;;;;;;15.57;7.20;;;;;;;-0.78;87.41;101975.28;10448436;28;20444;-82
2022/12/29 17:22:59;;;;;;;10.38;5.22;;;;;;;-1.15;88.14;101915.72;10426972;28;20060;-82
2022/12/29 17:28:10;;;;;;;12.68;5.78;;;;;;;-1.10;87.99;101937.28;10435933;28;20056;-81
2022/12/29 17:33:17;;;;;;;11.43;6.30;;;;;;;-1.20;87.98;101910.69;10414505;28;20076;-81
2022/12/29 17:38:22;;;;;;;13.32;6.95;;;;;;;-0.79;88.29;101983.13;10414695;28;20095;-82
2022/12/29 17:43:23;;;;;;;17.58;8.23;;;;;;;-0.80;88.55;101987.50;10438171;28;20488;-82
2022/12/29 17:48:25;;;;;;;23.95;7.60;;;;;;;-1.05;87.95;101945.75;10454311;28;20057;-81
2022/12/29 17:53:29;;;;;;;21.85;7.15;;;;;;;-1.16;88.37;101924.44;10431761;28;20065;-84
2022/12/29 17:58:31;;;;;;;17.50;7.65;;;;;;;-1.04;88.28;101942.28;10413886;28;20473;-86
2022/12/29 18:03:37;;;;;;;16.45;6.72;;;;;;;-0.92;87.39;101977.50;10414494;28;20046;-85
2022/12/29 18:08:39;;;;;;;15.18;7.63;;;;;;;-1.02;87.93;101971.75;10426145;28;20113;-85
2022/12/29 18:13:40;;;;;;;16.20;9.13;;;;;;;-1.54;88.00;101882.31;10456526;28;20044;-84
2022/12/29 18:18:42;;;;;;;18.50;8.50;;;;;;;-0.96;88.00;101965.47;10455415;28;20043;-84
2022/12/29 18:23:44;;;;;;;20.13;10.55;;;;;;;-1.02;88.46;101963.91;10452945;28;20048;-85
2022/12/29 18:28:48;;;;;;;16.15;9.23;;;;;;;-1.14;88.33;101956.53;10455086;28;20059;-85
2022/12/29 18:33:50;;;;;;;17.02;9.02;;;;;;;-1.28;88.57;101951.81;10453378;28;20044;-84
2022/12/29 18:38:53;;;;;;;21.90;9.73;;;;;;;-1.40;88.25;101953.06;10455111;28;20051;-84
2022/12/29 18:43:55;;;;;;;21.75;10.35;;;;;;;-1.39;88.24;101938.28;10455658;28;20412;-83
2022/12/29 18:48:55;;;;;;;13.45;7.85;;;;;;;-1.78;89.08;101860.53;10454008;28;20052;-83
2022/12/29 18:53:56;;;;;;;20.00;7.30;;;;;;;-1.55;88.41;101898.00;10434857;28;20052;-83
2022/12/29 18:58:57;;;;;;;13.63;7.18;;;;;;;-1.21;88.92;101948.06;10413452;28;20061;-81
2022/12/29 19:03:58;;;;;;;15.90;8.75;;;;;;;-1.31;88.77;101922.38;10426263;28;20408;-80
2022/12/29 19:08:59;;;;;;;14.70;8.13;;;;;;;-1.14;88.44;101953.91;10452391;28;20496;-80
2022/12/29 19:14:00;;;;;;;22.75;7.30;;;;;;;-1.10;88.79;101958.13;10452931;28;20045;-81
2022/12/29 19:19:01;;;;;;;12.48;6.38;;;;;;;-1.27;88.57;101919.59;10453270;28;20523;-80
2022/12/29 19:24:01;;;;;;;14.02;7.13;;;;;;;-1.05;88.73;101944.91;10437527;28;20179;-80
2022/12/29 19:29:12;;;;;;;12.02;7.75;;;;;;;-1.42;88.73;101863.63;10413115;28;20136;-80
2022/12/29 19:34:16;;;;;;;16.02;7.75;;;;;;;-1.14;88.62;101914.78;10415142;28;20052;-81
2022/12/29 19:39:17;;;;;;;;;;;;;;;-0.77;88.63;101973.50;10419968;28;20083;-81
2022/12/29 19:44:18;;;;;;;17.48;8.70;;;;;;;-0.90;88.81;101962.63;10417490;28;20011;-81
2022/12/29 19:49:19;;;;;;;23.73;11.48;;;;;;;-1.29;89.36;101881.44;10416556;28;20053;-81
2022/12/29 19:54:19;;;;;;;27.75;11.90;;;;;;;-1.27;88.94;101875.28;10416149;28;20049;-80
2022/12/29 19:59:20;;;;;;;15.07;8.23;;;;;;;-0.96;89.55;101919.38;10409009;28;20041;-81
2022/12/29 20:04:21;;;;;;;16.25;8.40;;;;;;;-0.65;88.98;101939.13;10435861;28;20072;-81
2022/12/29 20:09:22;;;;;;;26.10;7.93;;;;;;;-0.50;89.10;101949.00;10459952;28;20052;-81
2022/12/29 20:14:23;;;;;;;13.55;8.13;;;;;;;-0.66;88.63;101900.88;10459444;28;20047;-81
2022/12/29 20:19:24;;;;;;;19.25;7.88;;;;;;;-0.42;88.70;101938.25;10458672;28;20068;-81
2022/12/29 20:24:25;;;;;;;14.63;7.05;;;;;;;-1.24;88.19;101812.59;10457889;28;20064;-81
2022/12/29 20:29:26;;;;;;;14.10;7.15;;;;;;;-0.72;88.21;101919.38;10457782;28;20043;-81
2022/12/29 20:34:26;;;;;;;12.23;6.63;;;;;;;-0.52;87.96;101952.56;10459388;28;20455;-80
2022/12/29 20:39:27;;;;;;;9.18;5.85;;;;;;;-0.83;88.09;101939.81;10458691;28;20037;-80
2022/12/29 20:44:30;;;;;;;12.57;7.20;;;;;;;-0.98;88.63;101941.22;10445194;28;20067;-81
2022/12/29 20:49:34;;;;;;;15.48;7.22;;;;;;;-1.07;88.77;101931.09;10458059;28;20493;-80
2022/12/29 20:54:34;;;;;;;14.68;6.97;;;;;;;-1.28;88.83;101906.63;10457964;28;20079;-80
2022/12/29 20:59:36;;;;;;;12.40;7.32;;;;;;;-1.70;88.64;101878.53;10456409;28;20049;-80
2022/12/29 21:04:37;;;;;;;12.02;7.13;;;;;;;-1.32;89.10;101963.22;10456858;28;20047;-80
2022/12/29 21:09:37;;;;;;;20.02;8.30;;;;;;;-1.39;89.06;101959.13;10456858;28;20033;-80
2022/12/29 21:14:38;;;;;;;21.95;9.35;;;;;;;-2.21;88.78;101819.47;10456632;28;20531;-80
2022/12/29 21:19:39;;;;;;;20.20;9.68;;;;;;;-1.50;88.95;101962.09;10443763;28;20485;-80
2022/12/29 21:24:40;;;;;;;17.13;9.57;;;;;;;-2.01;88.33;101889.09;10456265;28;20127;-79
2022/12/29 21:29:40;;;;;;;16.23;7.95;;;;;;;-2.20;89.27;101870.63;10456141;28;20045;-77
2022/12/29 21:34:41;;;;;;;16.23;7.30;;;;;;;-1.86;89.27;101930.25;10456544;28;20051;-79
2022/12/29 21:39:42;;;;;;;13.07;7.32;;;;;;;-1.84;89.58;101926.72;10456610;28;20041;-79
2022/12/29 21:50:02;;;;;;;13.55;7.65;;;;;;;-2.42;89.79;101834.84;10454669;28;20056;-79
2022/12/29 21:55:03;;;;;;;13.13;7.05;;;;;;;-1.77;89.71;101939.53;10453900;28;20051;-79
2022/12/29 22:16:09;;;;;;;11.70;6.78;;;;;;;-1.70;89.58;101923.66;10418052;28;20049;-79
2022/12/29 22:21:10;;;;;;;13.13;7.25;;;;;;;-2.00;90.21;101876.03;10413700;28;20033;-79
2022/12/29 22:26:13;;;;;;;14.70;6.38;;;;;;;-2.02;89.40;101872.63;10413609;28;20053;-79
2022/12/29 22:31:26;;;;;;;13.30;6.10;;;;;;;-2.13;90.40;101862.53;10413156;28;20037;-79
2022/12/29 22:36:28;;;;;;;17.13;7.03;;;;;;;-1.70;89.64;101951.47;10412936;28;20042;-79
2022/12/29 22:41:29;;;;;;;9.57;6.03;;;;;;;-1.80;90.21;101942.25;10411427;28;20291;-79
2022/12/29 22:46:30;;;;;;;13.88;6.70;;;;;;;-2.17;90.17;101873.13;10413072;28;20391;-79
2022/12/29 22:51:31;;;;;;;11.02;6.22;;;;;;;-1.98;90.25;101908.06;10413166;28;20053;-79
2022/12/29 22:56:32;;;;;;;13.70;6.50;;;;;;;-2.42;90.40;101827.06;10412107;28;20071;-79
2022/12/29 23:01:33;;;;;;;14.70;6.70;;;;;;;-1.93;90.35;101895.75;10410826;28;20103;-79
2022/12/29 23:06:34;;;;;;;12.50;7.60;;;;;;;-1.72;90.65;101925.47;10412166;28;20034;-79
2022/12/29 23:11:35;;;;;;;12.52;6.53;;;;;;;-1.68;89.94;101921.84;10419878;28;20132;-79
2022/12/29 23:16:36;;;;;;;12.60;7.07;;;;;;;-1.79;90.03;101920.53;10419121;28;20120;-79
2022/12/29 23:21:37;;;;;;;13.30;6.25;;;;;;;-2.10;89.81;101877.22;10419885;28;20065;-79
2022/12/29 23:26:46;;;;;;;12.43;6.55;;;;;;;-1.77;90.61;101921.31;10419374;28;20048;-79
2022/12/29 23:31:47;;;;;;;12.20;6.30;;;;;;;-2.05;90.44;101877.09;10419910;28;20049;-79
2022/12/29 23:36:49;;;;;;;11.35;6.00;;;;;;;-2.09;90.13;101853.75;10419258;28;20456;-79
2022/12/29 23:41:50;;;;;;;10.57;5.55;;;;;;;-1.71;90.97;101908.91;10419986;28;20044;-79
2022/12/29 23:46:51;;;;;;;10.13;4.85;;;;;;;-2.13;90.63;101835.66;10419453;28;20045;-79
2022/12/29 23:51:52;;;;;;;11.98;5.72;;;;;;;-1.80;90.39;101882.31;10418074;28;20512;-79
2022/12/29 23:56:53;;;;;;;9.35;5.40;;;;;;;-2.17;90.12;101803.66;10417632;28;20090;-79
